Terminal Aerodrome Forecast
Issued by NWS

Home | Current Version | Previous Version | Graphics & Text | Print | Product List | Glossary On
Versions: 1 2 3 4 5 6 7 8 9 10 11 12
000
FTUS43 KGRB 141100
TAFATW
TAF
KATW 141120Z 1412/1512 22007KT P6SM OVC050
     FM141600 23010G16KT P6SM SCT050 BKN100
     FM142000 23009G15KT P6SM FEW050 SCT100
     FM150000 22006KT P6SM VCSH FEW040 BKN150
     FM150800 27003KT P6SM VCSH SCT040 BKN070
      TEMPO 1508/1512 5SM -SHRA BR BKN040=

USA.gov is the U.S. government's official web portal to all federal, state and local government web resources and services.